createdAt,value
2024-01-31T00:01:19.782Z,39.13
2024-01-31T00:03:46.989Z,36.10
2024-01-31T00:06:15.219Z,35.23
2024-01-31T00:08:43.568Z,36.07
2024-01-31T00:11:10.553Z,35.90
2024-01-31T00:13:37.670Z,36.83
2024-01-31T00:16:05.527Z,38.50
2024-01-31T00:18:32.660Z,35.53
2024-01-31T00:20:59.668Z,37.63
2024-01-31T00:23:26.770Z,36.13
2024-01-31T00:25:53.883Z,32.60
2024-01-31T00:28:20.945Z,35.30
2024-01-31T00:30:48.997Z,35.63
2024-01-31T00:33:16.138Z,33.27
2024-01-31T00:35:45.319Z,36.70
2024-01-31T00:38:12.337Z,35.13
2024-01-31T00:40:39.445Z,35.37
2024-01-31T00:43:06.672Z,33.33
2024-01-31T00:45:33.954Z,32.93
2024-01-31T00:48:01.030Z,33.40
2024-01-31T00:50:28.191Z,34.63
2024-01-31T00:52:55.429Z,33.67
2024-01-31T00:55:22.481Z,31.73
2024-01-31T00:57:50.345Z,32.43
2024-01-31T01:00:19.060Z,37.07
2024-01-31T01:02:46.052Z,33.13
2024-01-31T01:10:02.530Z,30.33
2024-01-31T01:12:29.597Z,35.37
2024-01-31T01:15:02.012Z,33.93
2024-01-31T01:17:41.876Z,31.90
2024-01-31T01:20:10.080Z,33.13
2024-01-31T01:22:37.314Z,31.07
2024-01-31T01:25:04.577Z,30.60
2024-01-31T01:27:31.593Z,35.37
2024-01-31T01:29:58.696Z,32.80
2024-01-31T01:32:25.819Z,33.00
2024-01-31T01:34:52.861Z,31.37
2024-01-31T01:37:19.861Z,32.27
2024-01-31T01:39:47.022Z,32.60
2024-01-31T01:42:14.050Z,31.07
2024-01-31T01:44:47.767Z,30.30
2024-01-31T01:47:17.070Z,31.93
2024-01-31T01:49:45.748Z,32.77
2024-01-31T01:52:13.677Z,29.77
2024-01-31T01:54:40.969Z,34.50
2024-01-31T01:57:08.881Z,32.83
2024-01-31T01:59:36.561Z,30.77
2024-01-31T02:02:03.909Z,30.77
2024-01-31T02:04:31.192Z,29.97
2024-01-31T02:06:58.875Z,29.90
2024-01-31T02:09:27.394Z,29.80
2024-01-31T02:11:54.643Z,27.57
2024-01-31T02:14:21.655Z,27.60
2024-01-31T02:16:48.620Z,31.37
2024-01-31T02:19:15.895Z,30.00
2024-01-31T02:21:44.896Z,33.90
2024-01-31T02:24:12.355Z,31.13
2024-01-31T02:26:39.454Z,29.60
2024-01-31T02:29:06.481Z,31.77
2024-01-31T02:31:33.480Z,29.23
2024-01-31T02:34:00.811Z,29.30
2024-01-31T02:36:28.032Z,28.37
2024-01-31T02:38:54.956Z,29.53
2024-01-31T02:41:22.052Z,28.00
2024-01-31T02:43:49.777Z,30.10
2024-01-31T02:46:17.078Z,26.97
2024-01-31T02:48:44.243Z,31.77
2024-01-31T02:51:11.283Z,29.30
2024-01-31T02:53:38.295Z,28.50
2024-01-31T02:56:08.114Z,28.63
2024-01-31T02:58:35.286Z,28.30
2024-01-31T03:01:05.988Z,29.50
2024-01-31T03:03:33.000Z,29.43
2024-01-31T03:06:00.043Z,28.90
2024-01-31T03:08:27.055Z,31.73
2024-01-31T03:10:53.963Z,31.20
2024-01-31T03:13:21.104Z,31.73
2024-01-31T03:15:48.129Z,31.07
2024-01-31T03:18:15.442Z,28.97
2024-01-31T03:20:42.530Z,30.20
2024-01-31T03:23:10.090Z,27.60
2024-01-31T03:25:37.119Z,29.93
2024-01-31T03:28:04.362Z,31.27
2024-01-31T03:30:31.426Z,28.87
2024-01-31T03:32:58.917Z,27.80
2024-01-31T03:35:25.986Z,29.67
2024-01-31T03:37:52.938Z,30.13
2024-01-31T03:40:20.282Z,30.70
2024-01-31T03:42:47.308Z,29.70
2024-01-31T03:45:14.259Z,31.00
2024-01-31T03:47:41.396Z,29.93
2024-01-31T03:50:08.729Z,31.77
2024-01-31T03:52:37.758Z,32.57
2024-01-31T03:55:05.532Z,29.13
2024-01-31T03:57:32.689Z,31.07
2024-01-31T04:00:06.390Z,28.97
2024-01-31T04:02:33.800Z,29.37
2024-01-31T04:05:01.147Z,30.23
2024-01-31T04:07:31.568Z,32.83
2024-01-31T04:09:58.581Z,29.70
2024-01-31T04:12:25.620Z,30.20
2024-01-31T04:14:52.639Z,31.93
2024-01-31T04:17:21.101Z,30.97
2024-01-31T04:19:50.636Z,32.63
2024-01-31T04:22:18.279Z,31.47
2024-01-31T04:24:46.532Z,31.07
2024-01-31T04:27:13.740Z,33.73
2024-01-31T04:29:41.658Z,29.10
2024-01-31T04:32:08.777Z,33.17
2024-01-31T04:34:42.070Z,33.50
2024-01-31T04:37:09.180Z,34.20
2024-01-31T04:39:39.462Z,30.90
2024-01-31T04:42:06.569Z,31.60
2024-01-31T04:44:34.128Z,34.00
2024-01-31T04:47:01.238Z,32.47
2024-01-31T04:49:28.647Z,29.97
2024-01-31T04:51:55.972Z,33.23
2024-01-31T04:54:23.106Z,31.47
2024-01-31T04:56:50.044Z,32.73
2024-01-31T04:59:17.072Z,31.17
2024-01-31T05:01:44.773Z,33.10
2024-01-31T05:04:12.219Z,31.17
2024-01-31T05:06:39.353Z,33.30
2024-01-31T05:09:07.980Z,32.40
2024-01-31T05:11:35.035Z,34.13
2024-01-31T05:14:02.183Z,32.87
2024-01-31T05:16:29.273Z,31.30
2024-01-31T05:18:56.325Z,33.60
2024-01-31T05:21:23.319Z,34.97
2024-01-31T05:23:50.384Z,40.53
2024-01-31T05:26:19.033Z,35.60
2024-01-31T05:28:46.172Z,35.27
2024-01-31T05:31:13.359Z,35.30
2024-01-31T05:33:40.581Z,36.67
2024-01-31T05:36:08.462Z,36.63
2024-01-31T05:38:35.494Z,37.30
2024-01-31T05:41:02.954Z,32.40
2024-01-31T05:43:30.090Z,37.83
2024-01-31T05:45:57.817Z,37.23
2024-01-31T05:48:24.819Z,38.60
2024-01-31T05:50:51.848Z,39.37
2024-01-31T05:53:18.887Z,43.50
2024-01-31T05:55:45.993Z,38.37
2024-01-31T05:58:13.146Z,37.90
2024-01-31T06:00:42.192Z,40.77
2024-01-31T06:03:09.520Z,42.37
2024-01-31T06:05:36.773Z,44.70
2024-01-31T06:08:06.932Z,47.00
2024-01-31T06:10:35.472Z,43.80
2024-01-31T06:13:02.653Z,41.63
2024-01-31T06:15:29.712Z,46.37
2024-01-31T06:17:57.019Z,48.03
2024-01-31T06:20:24.138Z,43.77
2024-01-31T06:22:51.379Z,47.10
2024-01-31T06:25:19.500Z,43.43
2024-01-31T06:27:47.299Z,47.83
2024-01-31T06:30:20.999Z,47.33
2024-01-31T06:32:49.306Z,50.10
2024-01-31T06:35:16.574Z,49.00
2024-01-31T06:37:43.642Z,48.47
2024-01-31T06:40:10.901Z,54.57
2024-01-31T06:42:37.915Z,51.00
2024-01-31T06:45:08.182Z,44.97
2024-01-31T06:47:35.229Z,51.37
2024-01-31T06:50:02.316Z,55.60
2024-01-31T06:52:29.284Z,51.17
2024-01-31T06:54:56.443Z,52.00
2024-01-31T06:57:23.441Z,47.23
2024-01-31T06:59:50.393Z,49.93
2024-01-31T07:02:17.481Z,49.73
2024-01-31T07:04:44.578Z,52.10
2024-01-31T07:07:11.768Z,50.07
2024-01-31T07:09:38.975Z,51.50
2024-01-31T07:12:06.709Z,50.90
2024-01-31T07:14:33.729Z,45.83
2024-01-31T07:17:00.804Z,45.40
2024-01-31T07:19:29.113Z,50.47
2024-01-31T07:21:57.574Z,49.23
2024-01-31T07:24:29.515Z,47.27
2024-01-31T07:26:57.252Z,47.00
2024-01-31T07:29:24.271Z,52.67
2024-01-31T07:31:51.962Z,49.40
2024-01-31T07:34:19.128Z,48.27
2024-01-31T07:36:46.319Z,47.80
2024-01-31T07:39:13.692Z,48.13
2024-01-31T07:41:40.728Z,48.80
2024-01-31T07:44:07.661Z,51.20
2024-01-31T07:46:34.677Z,45.03
2024-01-31T07:49:02.283Z,49.40
2024-01-31T07:51:29.267Z,46.47
2024-01-31T07:53:56.239Z,44.70
2024-01-31T07:56:23.214Z,47.67
2024-01-31T07:58:50.137Z,42.97
2024-01-31T08:01:17.315Z,43.47
2024-01-31T08:03:44.436Z,49.07
2024-01-31T08:06:11.598Z,49.30
2024-01-31T08:08:39.281Z,43.87
2024-01-31T08:11:06.308Z,48.57
2024-01-31T08:13:34.407Z,43.63
2024-01-31T08:16:02.016Z,42.90
2024-01-31T08:18:29.234Z,47.40
2024-01-31T08:20:56.354Z,49.47
2024-01-31T08:23:23.516Z,49.70
2024-01-31T08:25:51.013Z,48.90
2024-01-31T08:28:18.212Z,46.37
2024-01-31T08:30:45.320Z,43.67
2024-01-31T08:33:12.560Z,48.33
2024-01-31T08:35:39.735Z,45.60
2024-01-31T08:38:06.735Z,45.60
2024-01-31T08:40:33.988Z,43.73
2024-01-31T08:43:01.256Z,44.20
2024-01-31T08:45:28.421Z,46.20
2024-01-31T08:47:55.554Z,47.47
2024-01-31T08:50:22.793Z,48.20
2024-01-31T08:52:50.278Z,47.17
2024-01-31T08:55:17.953Z,44.47
2024-01-31T08:57:45.118Z,41.55
2024-01-31T09:00:12.644Z,48.73
2024-01-31T09:02:39.663Z,44.87
2024-01-31T09:05:07.510Z,51.97
2024-01-31T09:07:34.740Z,42.67
2024-01-31T09:10:01.800Z,45.83
2024-01-31T09:12:29.838Z,46.23
2024-01-31T09:14:57.185Z,49.23
2024-01-31T09:17:24.093Z,43.00
2024-01-31T09:19:51.161Z,42.37
2024-01-31T09:22:18.521Z,41.03
2024-01-31T09:24:46.002Z,43.00
2024-01-31T09:27:13.089Z,43.20
2024-01-31T09:29:42.442Z,42.20
2024-01-31T09:32:11.219Z,38.67
2024-01-31T09:34:38.298Z,42.17
2024-01-31T09:37:05.657Z,49.93
2024-01-31T09:39:32.826Z,44.70
2024-01-31T09:42:00.166Z,42.30
2024-01-31T09:44:28.576Z,42.17
2024-01-31T09:46:57.553Z,43.57
2024-01-31T09:49:24.981Z,38.53
2024-01-31T09:52:00.191Z,42.50
2024-01-31T09:54:27.900Z,43.53
2024-01-31T09:56:56.388Z,44.55
2024-01-31T09:59:23.367Z,44.93
2024-01-31T10:01:58.533Z,44.50
2024-01-31T10:04:25.637Z,40.60
2024-01-31T10:06:53.395Z,38.93
2024-01-31T10:09:20.619Z,41.73
2024-01-31T10:11:48.371Z,38.13
2024-01-31T10:14:15.829Z,44.73
2024-01-31T10:16:43.068Z,40.57
2024-01-31T10:19:10.333Z,38.70
2024-01-31T10:21:37.663Z,42.50
2024-01-31T10:24:05.230Z,41.37
2024-01-31T10:26:35.202Z,40.37
2024-01-31T10:29:09.136Z,38.23
2024-01-31T10:31:40.212Z,39.37
2024-01-31T10:34:10.582Z,41.93
2024-01-31T10:39:13.504Z,44.40
2024-01-31T10:41:43.684Z,39.47
2024-01-31T10:44:12.189Z,40.63
2024-01-31T10:46:40.898Z,42.83
2024-01-31T10:49:08.388Z,43.10
2024-01-31T10:51:37.167Z,37.87
2024-01-31T10:54:06.263Z,39.17
2024-01-31T10:56:34.833Z,35.70
2024-01-31T10:59:03.685Z,46.50
2024-01-31T11:01:31.769Z,37.33
2024-01-31T11:03:59.352Z,36.97
2024-01-31T11:06:26.602Z,39.63
2024-01-31T11:08:53.851Z,42.27
2024-01-31T11:11:21.519Z,39.17
2024-01-31T11:13:48.535Z,41.60
2024-01-31T11:16:25.294Z,38.87
2024-01-31T11:18:55.978Z,38.03
2024-01-31T11:21:24.668Z,41.00
2024-01-31T11:23:51.829Z,39.27
2024-01-31T11:26:30.181Z,39.07
2024-01-31T11:28:57.438Z,43.00
2024-01-31T11:31:25.283Z,40.67
2024-01-31T11:33:56.887Z,39.93
2024-01-31T11:36:24.029Z,45.07
2024-01-31T11:38:51.564Z,38.63
2024-01-31T11:41:18.605Z,40.33
2024-01-31T11:43:45.744Z,39.10
2024-01-31T11:46:12.727Z,37.13
2024-01-31T11:48:40.327Z,44.83
2024-01-31T11:51:09.137Z,37.77
2024-01-31T11:53:36.275Z,37.00
2024-01-31T11:56:03.467Z,35.43
2024-01-31T11:58:31.762Z,39.43
2024-01-31T12:00:58.965Z,35.63
2024-01-31T12:03:26.026Z,35.00
2024-01-31T12:05:57.683Z,42.10
2024-01-31T12:08:28.477Z,33.47
2024-01-31T12:10:55.897Z,31.93
2024-01-31T12:13:23.432Z,33.23
2024-01-31T12:15:50.485Z,33.33
2024-01-31T12:18:24.009Z,30.00
2024-01-31T12:21:01.476Z,37.40
2024-01-31T12:23:28.502Z,35.43
2024-01-31T12:25:55.500Z,32.10
2024-01-31T12:28:22.542Z,32.43
2024-01-31T12:30:50.026Z,37.43
2024-01-31T12:33:17.081Z,38.80
2024-01-31T12:35:45.151Z,32.97
2024-01-31T12:38:12.715Z,30.63
2024-01-31T12:40:39.957Z,32.67
2024-01-31T12:43:07.174Z,32.47
2024-01-31T12:45:34.717Z,35.30
2024-01-31T12:48:01.934Z,35.43
2024-01-31T12:50:29.069Z,32.50
2024-01-31T12:52:58.875Z,32.70
2024-01-31T12:55:25.942Z,32.17
2024-01-31T12:57:53.110Z,28.60
2024-01-31T13:00:20.168Z,29.20
2024-01-31T13:02:47.279Z,28.80
2024-01-31T13:05:14.650Z,31.47
2024-01-31T13:07:42.161Z,29.37
2024-01-31T13:10:09.863Z,31.23
2024-01-31T13:12:36.885Z,26.83
2024-01-31T13:15:04.368Z,27.53
2024-01-31T13:17:31.433Z,25.80
2024-01-31T13:19:58.420Z,27.87
2024-01-31T13:22:25.472Z,25.77
2024-01-31T13:24:52.458Z,24.17
2024-01-31T13:27:19.476Z,26.00
2024-01-31T13:29:46.699Z,22.33
2024-01-31T13:32:13.683Z,21.37
2024-01-31T13:34:42.739Z,24.53
2024-01-31T13:37:10.068Z,22.80
2024-01-31T13:39:37.208Z,25.17
2024-01-31T13:42:05.600Z,24.07
2024-01-31T13:44:32.986Z,24.23
2024-01-31T13:47:00.027Z,23.73
2024-01-31T13:49:27.141Z,25.47
2024-01-31T13:51:54.143Z,25.30
2024-01-31T13:54:21.160Z,24.80
2024-01-31T13:56:48.272Z,26.27
2024-01-31T13:59:15.277Z,25.20
2024-01-31T14:01:42.227Z,29.43
2024-01-31T14:04:09.857Z,30.67
2024-01-31T14:06:37.168Z,29.27
2024-01-31T14:09:04.730Z,29.03
2024-01-31T14:11:31.849Z,28.47
2024-01-31T14:14:00.208Z,27.97
2024-01-31T14:16:27.141Z,29.90
2024-01-31T14:18:54.265Z,26.93
2024-01-31T14:21:21.346Z,31.30
2024-01-31T14:23:52.304Z,35.10
2024-01-31T14:26:24.877Z,30.73
2024-01-31T14:28:52.091Z,32.70
2024-01-31T14:31:19.154Z,33.23
2024-01-31T14:33:46.389Z,32.10
2024-01-31T14:36:13.609Z,34.03
2024-01-31T14:38:40.795Z,30.73
2024-01-31T14:41:07.929Z,33.80
2024-01-31T14:43:34.916Z,32.77
2024-01-31T14:46:02.104Z,32.40
2024-01-31T14:48:29.457Z,34.83
2024-01-31T14:50:56.778Z,33.13
2024-01-31T14:53:24.121Z,33.83
2024-01-31T14:55:51.184Z,32.78
2024-01-31T14:58:18.292Z,34.45
2024-01-31T15:00:46.005Z,33.03
2024-01-31T15:03:13.034Z,34.90
2024-01-31T15:05:40.437Z,33.93
2024-01-31T15:08:07.736Z,31.73
2024-01-31T15:10:34.737Z,29.77
2024-01-31T15:13:01.898Z,33.80
2024-01-31T15:15:28.929Z,32.80
2024-01-31T15:17:56.061Z,32.72
2024-01-31T15:20:23.206Z,34.97
2024-01-31T15:22:50.220Z,33.73
2024-01-31T15:25:17.304Z,31.90
2024-01-31T15:27:45.475Z,34.10
2024-01-31T15:30:13.974Z,36.37
2024-01-31T15:32:41.365Z,34.37
2024-01-31T15:35:09.230Z,34.83
2024-01-31T15:37:36.194Z,34.27
2024-01-31T15:40:03.267Z,33.03
2024-01-31T15:42:30.623Z,33.37
2024-01-31T15:44:57.856Z,34.67
2024-01-31T15:47:24.905Z,31.47
2024-01-31T15:49:52.386Z,31.43
2024-01-31T15:52:19.580Z,32.90
2024-01-31T15:54:46.564Z,33.83
2024-01-31T15:57:13.684Z,33.87
2024-01-31T15:59:40.755Z,33.73
2024-01-31T16:02:07.753Z,34.20
2024-01-31T16:04:34.770Z,29.83
2024-01-31T16:07:02.947Z,36.57
2024-01-31T16:09:30.333Z,33.10
2024-01-31T16:12:00.296Z,31.27
2024-01-31T16:14:27.453Z,31.47
2024-01-31T16:16:54.601Z,29.90
2024-01-31T16:19:21.856Z,27.40
2024-01-31T16:21:49.954Z,30.07
2024-01-31T16:24:17.246Z,30.87
2024-01-31T16:26:44.841Z,29.07
2024-01-31T16:29:11.972Z,28.83
2024-01-31T16:31:43.797Z,31.47
2024-01-31T16:34:11.183Z,29.17
2024-01-31T16:36:38.410Z,29.23
2024-01-31T16:39:05.521Z,28.37
2024-01-31T16:41:32.684Z,29.30
2024-01-31T16:43:59.776Z,31.13
2024-01-31T16:46:27.569Z,31.37
2024-01-31T16:48:56.272Z,31.07
2024-01-31T16:51:23.783Z,32.53
2024-01-31T16:53:51.014Z,31.43
2024-01-31T16:56:18.303Z,29.83
2024-01-31T16:58:45.402Z,33.77
2024-01-31T17:01:12.564Z,33.73
2024-01-31T17:03:40.715Z,32.77
2024-01-31T17:06:08.122Z,32.50
2024-01-31T17:08:36.526Z,37.20
2024-01-31T17:11:04.093Z,32.43
2024-01-31T17:13:31.060Z,33.47
2024-01-31T17:15:59.335Z,33.73
2024-01-31T17:18:26.580Z,34.50
2024-01-31T17:20:53.868Z,35.87
2024-01-31T17:23:21.580Z,37.87
2024-01-31T17:25:48.614Z,35.53
2024-01-31T17:28:15.944Z,32.77
2024-01-31T17:30:43.226Z,29.40
2024-01-31T17:33:11.068Z,31.37
2024-01-31T17:35:38.916Z,29.97
2024-01-31T17:38:06.199Z,32.20
2024-01-31T17:40:33.510Z,31.20
2024-01-31T17:43:01.143Z,31.13
2024-01-31T17:45:29.925Z,28.87
2024-01-31T17:47:57.682Z,34.33
2024-01-31T17:50:25.753Z,29.80
2024-01-31T17:52:53.245Z,32.37
2024-01-31T17:55:21.100Z,31.40
2024-01-31T17:57:49.235Z,33.63
2024-01-31T18:00:20.028Z,32.87
2024-01-31T18:02:48.756Z,31.87
2024-01-31T18:05:15.923Z,32.43
2024-01-31T18:07:43.248Z,34.97
2024-01-31T18:10:10.557Z,33.90
2024-01-31T18:12:37.711Z,33.60
2024-01-31T18:15:11.916Z,33.47
2024-01-31T18:17:40.904Z,34.83
2024-01-31T18:20:08.322Z,32.50
2024-01-31T18:22:35.379Z,31.30
2024-01-31T18:25:02.421Z,33.47
2024-01-31T18:27:29.438Z,31.63
2024-01-31T18:29:56.562Z,32.13
2024-01-31T18:32:26.404Z,35.90
2024-01-31T18:34:53.775Z,34.30
2024-01-31T18:37:23.336Z,35.27
2024-01-31T18:39:51.001Z,32.83
2024-01-31T18:42:18.174Z,34.57
2024-01-31T18:44:45.355Z,33.00
2024-01-31T18:47:12.652Z,32.67
2024-01-31T18:49:39.911Z,30.77
2024-01-31T18:52:09.391Z,33.80
2024-01-31T18:54:38.651Z,29.77
2024-01-31T18:57:06.522Z,32.37
2024-01-31T18:59:33.662Z,32.87
2024-01-31T19:02:03.060Z,32.20
2024-01-31T19:04:32.848Z,29.23
2024-01-31T19:07:00.578Z,31.65
2024-01-31T19:09:29.127Z,32.67
2024-01-31T19:11:56.268Z,28.30
2024-01-31T19:14:23.424Z,29.83
2024-01-31T19:16:51.122Z,31.23
2024-01-31T19:19:18.433Z,31.43
2024-01-31T19:21:45.645Z,28.77
2024-01-31T19:24:12.677Z,30.63
2024-01-31T19:26:39.798Z,29.10
2024-01-31T19:29:07.209Z,29.07
2024-01-31T19:31:34.244Z,30.90
2024-01-31T19:34:01.500Z,31.43
2024-01-31T19:36:30.411Z,30.30
2024-01-31T19:38:58.141Z,35.50
2024-01-31T19:41:27.310Z,33.33
2024-01-31T19:43:54.813Z,34.20
2024-01-31T19:46:23.594Z,28.90
2024-01-31T19:48:50.784Z,29.97
2024-01-31T19:51:19.588Z,29.97
2024-01-31T19:53:53.580Z,30.30
2024-01-31T19:56:21.340Z,29.03
2024-01-31T19:58:48.717Z,27.30
2024-01-31T20:01:16.367Z,27.27
2024-01-31T20:03:44.007Z,20.10
2024-01-31T20:06:11.428Z,20.93
2024-01-31T20:08:38.759Z,17.70
2024-01-31T20:11:13.609Z,16.13
2024-01-31T20:13:40.860Z,16.30
2024-01-31T20:16:18.098Z,16.20
2024-01-31T20:18:50.964Z,16.13
2024-01-31T20:21:19.483Z,15.13
2024-01-31T20:23:49.454Z,15.70
2024-01-31T20:26:18.620Z,16.03
2024-01-31T20:28:45.716Z,16.23
2024-01-31T20:31:13.167Z,15.93
2024-01-31T20:33:40.302Z,16.67
2024-01-31T20:36:07.996Z,18.53
2024-01-31T20:38:35.080Z,13.90
2024-01-31T20:41:02.126Z,14.80
2024-01-31T20:43:29.028Z,14.47
2024-01-31T20:45:58.998Z,15.93
2024-01-31T20:48:33.426Z,19.10
2024-01-31T20:51:07.382Z,16.97
2024-01-31T20:53:34.571Z,17.53
2024-01-31T20:56:05.430Z,17.07
2024-01-31T20:58:32.815Z,15.77
2024-01-31T21:01:00.308Z,18.93
2024-01-31T21:03:27.327Z,17.57
2024-01-31T21:05:54.426Z,16.77
2024-01-31T21:08:21.508Z,18.00
2024-01-31T21:10:48.423Z,19.87
2024-01-31T21:13:17.567Z,20.40
2024-01-31T21:15:44.683Z,20.80
2024-01-31T21:18:12.203Z,20.57
2024-01-31T21:20:39.452Z,19.90
2024-01-31T21:23:06.557Z,22.97
2024-01-31T21:25:33.533Z,22.87
2024-01-31T21:28:03.298Z,23.00
2024-01-31T21:30:31.087Z,22.60
2024-01-31T21:32:58.160Z,21.67
2024-01-31T21:35:25.176Z,21.13
2024-01-31T21:37:52.622Z,19.57
2024-01-31T21:40:19.626Z,21.13
2024-01-31T21:42:47.086Z,22.50
2024-01-31T21:45:14.330Z,20.63
2024-01-31T21:47:41.514Z,19.37
2024-01-31T21:50:09.405Z,21.33
2024-01-31T21:52:36.447Z,19.03
2024-01-31T21:55:03.643Z,19.47
2024-01-31T21:57:30.614Z,20.73
2024-01-31T21:59:58.698Z,22.50
2024-01-31T22:02:26.404Z,21.07
2024-01-31T22:04:53.992Z,23.70
2024-01-31T22:07:22.095Z,23.47
2024-01-31T22:09:49.743Z,22.73
2024-01-31T22:12:16.821Z,20.87
2024-01-31T22:14:44.266Z,21.43
2024-01-31T22:17:11.640Z,19.97
2024-01-31T22:19:41.760Z,24.80
2024-01-31T22:22:09.241Z,24.63
2024-01-31T22:24:36.659Z,21.60
2024-01-31T22:27:04.070Z,22.37
2024-01-31T22:29:31.218Z,21.77
2024-01-31T22:32:05.167Z,23.03
2024-01-31T22:34:33.596Z,20.77
2024-01-31T22:37:04.418Z,22.90
2024-01-31T22:39:32.233Z,23.13
2024-01-31T22:41:59.425Z,21.43
2024-01-31T22:44:26.678Z,22.73
2024-01-31T22:46:53.663Z,21.30
2024-01-31T22:49:20.876Z,24.37
2024-01-31T22:51:49.085Z,22.87
2024-01-31T22:54:16.160Z,21.97
2024-01-31T22:56:43.280Z,22.70
2024-01-31T22:59:10.705Z,22.43
2024-01-31T23:01:37.824Z,21.60
2024-01-31T23:04:05.350Z,20.67
2024-01-31T23:06:32.905Z,22.23
2024-01-31T23:09:00.229Z,23.30
2024-01-31T23:11:27.537Z,21.27
2024-01-31T23:13:54.748Z,23.23
2024-01-31T23:16:21.783Z,22.20
2024-01-31T23:18:48.963Z,17.83
2024-01-31T23:21:16.661Z,20.40
2024-01-31T23:23:44.772Z,21.00
2024-01-31T23:26:17.264Z,21.30
2024-01-31T23:28:44.243Z,20.60
2024-01-31T23:31:11.809Z,21.93
2024-01-31T23:33:39.263Z,21.43
2024-01-31T23:36:06.976Z,18.97
2024-01-31T23:38:34.180Z,19.57
2024-01-31T23:41:01.615Z,20.10
2024-01-31T23:43:28.756Z,19.27
2024-01-31T23:45:55.654Z,19.73
2024-01-31T23:48:22.880Z,18.30
2024-01-31T23:50:50.088Z,17.20
2024-01-31T23:53:17.151Z,15.93
2024-01-31T23:55:44.304Z,16.80
2024-01-31T23:58:11.356Z,18.67
